sensor_id;sensor_type;location;lat;lon;timestamp;P1;durP1;ratioP1;P2;durP2;ratioP2
47960;SDS011;33721;48.852;9.936;2023-09-19T00:01:57;2.25;;;0.95;;
47960;SDS011;33721;48.852;9.936;2023-09-19T00:04:23;3.00;;;0.90;;
47960;SDS011;33721;48.852;9.936;2023-09-19T00:06:53;5.22;;;1.10;;
47960;SDS011;33721;48.852;9.936;2023-09-19T00:09:19;2.47;;;0.93;;
47960;SDS011;33721;48.852;9.936;2023-09-19T00:11:45;1.85;;;0.82;;
47960;SDS011;33721;48.852;9.936;2023-09-19T00:14:12;4.07;;;1.20;;
47960;SDS011;33721;48.852;9.936;2023-09-19T00:16:39;3.72;;;0.95;;
47960;SDS011;33721;48.852;9.936;2023-09-19T00:19:06;2.17;;;1.00;;
47960;SDS011;33721;48.852;9.936;2023-09-19T00:21:32;2.50;;;1.00;;
47960;SDS011;33721;48.852;9.936;2023-09-19T00:23:58;2.30;;;0.90;;
47960;SDS011;33721;48.852;9.936;2023-09-19T00:26:23;2.25;;;1.02;;
47960;SDS011;33721;48.852;9.936;2023-09-19T00:28:52;3.20;;;0.90;;
47960;SDS011;33721;48.852;9.936;2023-09-19T00:31:17;3.03;;;1.15;;
47960;SDS011;33721;48.852;9.936;2023-09-19T00:33:43;3.28;;;0.73;;
47960;SDS011;33721;48.852;9.936;2023-09-19T00:36:09;3.15;;;0.82;;
47960;SDS011;33721;48.852;9.936;2023-09-19T00:38:34;4.55;;;1.17;;
47960;SDS011;33721;48.852;9.936;2023-09-19T00:41:00;2.88;;;1.00;;
47960;SDS011;33721;48.852;9.936;2023-09-19T00:43:26;2.13;;;1.00;;
47960;SDS011;33721;48.852;9.936;2023-09-19T00:45:53;5.85;;;0.93;;
47960;SDS011;33721;48.852;9.936;2023-09-19T00:48:23;2.10;;;0.90;;
47960;SDS011;33721;48.852;9.936;2023-09-19T00:50:53;2.85;;;1.25;;
47960;SDS011;33721;48.852;9.936;2023-09-19T00:53:23;3.28;;;0.90;;
47960;SDS011;33721;48.852;9.936;2023-09-19T00:55:50;1.80;;;0.82;;
47960;SDS011;33721;48.852;9.936;2023-09-19T00:58:17;3.90;;;0.80;;
47960;SDS011;33721;48.852;9.936;2023-09-19T01:00:43;2.13;;;0.88;;
47960;SDS011;33721;48.852;9.936;2023-09-19T01:03:10;2.17;;;1.10;;
47960;SDS011;33721;48.852;9.936;2023-09-19T01:05:38;1.73;;;0.90;;
47960;SDS011;33721;48.852;9.936;2023-09-19T01:08:04;2.63;;;1.00;;
47960;SDS011;33721;48.852;9.936;2023-09-19T01:10:31;2.78;;;0.98;;
47960;SDS011;33721;48.852;9.936;2023-09-19T01:28:54;3.95;;;1.00;;
47960;SDS011;33721;48.852;9.936;2023-09-19T01:31:59;1.50;;;0.70;;
47960;SDS011;33721;48.852;9.936;2023-09-19T01:34:43;5.18;;;0.93;;
47960;SDS011;33721;48.852;9.936;2023-09-19T01:37:14;1.55;;;0.80;;
47960;SDS011;33721;48.852;9.936;2023-09-19T01:48:00;2.55;;;0.77;;
47960;SDS011;33721;48.852;9.936;2023-09-19T01:50:55;1.08;;;0.60;;
47960;SDS011;33721;48.852;9.936;2023-09-19T01:55:55;1.05;;;0.50;;
47960;SDS011;33721;48.852;9.936;2023-09-19T02:00:57;2.53;;;0.77;;
47960;SDS011;33721;48.852;9.936;2023-09-19T02:03:25;5.05;;;1.00;;
47960;SDS011;33721;48.852;9.936;2023-09-19T02:05:53;1.20;;;0.70;;
47960;SDS011;33721;48.852;9.936;2023-09-19T02:08:20;2.03;;;0.70;;
47960;SDS011;33721;48.852;9.936;2023-09-19T02:10:48;4.65;;;0.75;;
47960;SDS011;33721;48.852;9.936;2023-09-19T02:13:17;2.15;;;0.70;;
47960;SDS011;33721;48.852;9.936;2023-09-19T02:15:44;2.78;;;0.85;;
47960;SDS011;33721;48.852;9.936;2023-09-19T02:18:11;1.80;;;0.70;;
47960;SDS011;33721;48.852;9.936;2023-09-19T02:20:40;2.65;;;0.85;;
47960;SDS011;33721;48.852;9.936;2023-09-19T02:23:06;1.67;;;0.65;;
47960;SDS011;33721;48.852;9.936;2023-09-19T02:25:33;2.22;;;0.80;;
47960;SDS011;33721;48.852;9.936;2023-09-19T02:27:58;1.75;;;0.63;;
47960;SDS011;33721;48.852;9.936;2023-09-19T02:30:26;2.60;;;0.80;;
47960;SDS011;33721;48.852;9.936;2023-09-19T02:32:51;3.40;;;0.75;;
47960;SDS011;33721;48.852;9.936;2023-09-19T02:35:17;1.73;;;0.75;;
47960;SDS011;33721;48.852;9.936;2023-09-19T02:37:46;3.13;;;0.77;;
47960;SDS011;33721;48.852;9.936;2023-09-19T02:40:12;1.92;;;0.70;;
47960;SDS011;33721;48.852;9.936;2023-09-19T02:42:45;2.28;;;0.80;;
47960;SDS011;33721;48.852;9.936;2023-09-19T02:45:17;2.13;;;0.80;;
47960;SDS011;33721;48.852;9.936;2023-09-19T02:47:44;2.28;;;0.73;;
47960;SDS011;33721;48.852;9.936;2023-09-19T02:50:10;2.45;;;0.75;;
47960;SDS011;33721;48.852;9.936;2023-09-19T02:52:36;1.73;;;0.70;;
47960;SDS011;33721;48.852;9.936;2023-09-19T02:55:02;1.55;;;0.73;;
47960;SDS011;33721;48.852;9.936;2023-09-19T02:57:30;1.77;;;0.70;;
47960;SDS011;33721;48.852;9.936;2023-09-19T02:59:58;7.35;;;1.05;;
47960;SDS011;33721;48.852;9.936;2023-09-19T03:02:26;2.65;;;0.90;;
47960;SDS011;33721;48.852;9.936;2023-09-19T03:04:53;1.90;;;0.73;;
47960;SDS011;33721;48.852;9.936;2023-09-19T03:07:19;2.00;;;0.90;;
47960;SDS011;33721;48.852;9.936;2023-09-19T03:09:44;1.73;;;0.85;;
47960;SDS011;33721;48.852;9.936;2023-09-19T03:12:10;1.65;;;0.73;;
47960;SDS011;33721;48.852;9.936;2023-09-19T03:14:36;1.30;;;0.75;;
47960;SDS011;33721;48.852;9.936;2023-09-19T03:17:02;2.97;;;0.90;;
47960;SDS011;33721;48.852;9.936;2023-09-19T03:19:31;1.83;;;0.90;;
47960;SDS011;33721;48.852;9.936;2023-09-19T03:21:59;2.22;;;0.85;;
47960;SDS011;33721;48.852;9.936;2023-09-19T03:24:25;4.43;;;1.00;;
47960;SDS011;33721;48.852;9.936;2023-09-19T03:26:51;3.63;;;0.75;;
47960;SDS011;33721;48.852;9.936;2023-09-19T03:29:17;2.63;;;1.00;;
47960;SDS011;33721;48.852;9.936;2023-09-19T03:31:43;2.03;;;1.10;;
47960;SDS011;33721;48.852;9.936;2023-09-19T03:34:09;3.28;;;0.82;;
47960;SDS011;33721;48.852;9.936;2023-09-19T03:36:35;4.20;;;1.00;;
47960;SDS011;33721;48.852;9.936;2023-09-19T03:39:01;2.75;;;0.93;;
47960;SDS011;33721;48.852;9.936;2023-09-19T03:41:30;2.35;;;0.90;;
47960;SDS011;33721;48.852;9.936;2023-09-19T03:43:56;7.40;;;1.10;;
47960;SDS011;33721;48.852;9.936;2023-09-19T03:46:22;3.90;;;1.02;;
47960;SDS011;33721;48.852;9.936;2023-09-19T03:48:47;3.33;;;0.90;;
47960;SDS011;33721;48.852;9.936;2023-09-19T03:51:13;3.53;;;1.20;;
47960;SDS011;33721;48.852;9.936;2023-09-19T03:53:39;7.45;;;1.25;;
47960;SDS011;33721;48.852;9.936;2023-09-19T03:56:04;6.95;;;1.35;;
47960;SDS011;33721;48.852;9.936;2023-09-19T03:58:30;4.45;;;1.25;;
47960;SDS011;33721;48.852;9.936;2023-09-19T04:00:56;8.80;;;1.30;;
47960;SDS011;33721;48.852;9.936;2023-09-19T04:03:23;2.25;;;1.10;;
47960;SDS011;33721;48.852;9.936;2023-09-19T04:05:49;2.65;;;1.30;;
47960;SDS011;33721;48.852;9.936;2023-09-19T04:08:15;2.53;;;1.10;;
47960;SDS011;33721;48.852;9.936;2023-09-19T04:10:42;2.45;;;1.20;;
47960;SDS011;33721;48.852;9.936;2023-09-19T04:13:08;3.28;;;1.20;;
47960;SDS011;33721;48.852;9.936;2023-09-19T04:15:34;2.63;;;1.20;;
47960;SDS011;33721;48.852;9.936;2023-09-19T04:17:59;3.90;;;1.13;;
47960;SDS011;33721;48.852;9.936;2023-09-19T04:20:25;2.38;;;0.90;;
47960;SDS011;33721;48.852;9.936;2023-09-19T04:22:51;4.80;;;1.00;;
47960;SDS011;33721;48.852;9.936;2023-09-19T04:25:17;2.22;;;1.00;;
47960;SDS011;33721;48.852;9.936;2023-09-19T04:27:43;3.70;;;1.30;;
47960;SDS011;33721;48.852;9.936;2023-09-19T04:30:09;2.67;;;1.10;;
47960;SDS011;33721;48.852;9.936;2023-09-19T04:32:36;2.90;;;0.98;;
47960;SDS011;33721;48.852;9.936;2023-09-19T04:35:09;2.75;;;0.95;;
47960;SDS011;33721;48.852;9.936;2023-09-19T04:37:41;2.57;;;1.37;;
47960;SDS011;33721;48.852;9.936;2023-09-19T04:40:07;3.38;;;1.40;;
47960;SDS011;33721;48.852;9.936;2023-09-19T04:42:42;2.15;;;1.20;;
47960;SDS011;33721;48.852;9.936;2023-09-19T04:45:08;3.38;;;1.45;;
47960;SDS011;33721;48.852;9.936;2023-09-19T04:47:35;4.50;;;1.20;;
47960;SDS011;33721;48.852;9.936;2023-09-19T04:50:04;3.05;;;1.20;;
47960;SDS011;33721;48.852;9.936;2023-09-19T04:52:36;3.28;;;1.15;;
47960;SDS011;33721;48.852;9.936;2023-09-19T04:55:04;5.28;;;1.10;;
47960;SDS011;33721;48.852;9.936;2023-09-19T04:57:30;2.63;;;1.33;;
47960;SDS011;33721;48.852;9.936;2023-09-19T04:59:56;2.50;;;1.25;;
47960;SDS011;33721;48.852;9.936;2023-09-19T05:02:22;2.75;;;1.42;;
47960;SDS011;33721;48.852;9.936;2023-09-19T05:04:48;2.10;;;1.20;;
47960;SDS011;33721;48.852;9.936;2023-09-19T05:07:13;3.72;;;1.27;;
47960;SDS011;33721;48.852;9.936;2023-09-19T05:09:39;5.53;;;1.60;;
47960;SDS011;33721;48.852;9.936;2023-09-19T05:12:07;3.38;;;1.10;;
47960;SDS011;33721;48.852;9.936;2023-09-19T05:14:32;2.92;;;1.27;;
47960;SDS011;33721;48.852;9.936;2023-09-19T05:16:58;4.90;;;1.17;;
47960;SDS011;33721;48.852;9.936;2023-09-19T05:19:24;9.05;;;1.38;;
47960;SDS011;33721;48.852;9.936;2023-09-19T05:21:49;2.65;;;1.48;;
47960;SDS011;33721;48.852;9.936;2023-09-19T05:24:15;4.63;;;1.30;;
47960;SDS011;33721;48.852;9.936;2023-09-19T05:26:41;2.22;;;0.98;;
47960;SDS011;33721;48.852;9.936;2023-09-19T05:29:07;2.72;;;1.17;;
47960;SDS011;33721;48.852;9.936;2023-09-19T05:31:34;3.58;;;1.27;;
47960;SDS011;33721;48.852;9.936;2023-09-19T05:34:01;3.35;;;1.30;;
47960;SDS011;33721;48.852;9.936;2023-09-19T05:36:27;3.15;;;1.10;;
47960;SDS011;33721;48.852;9.936;2023-09-19T05:38:54;3.45;;;1.38;;
47960;SDS011;33721;48.852;9.936;2023-09-19T05:41:20;6.43;;;1.38;;
47960;SDS011;33721;48.852;9.936;2023-09-19T05:43:48;2.67;;;1.27;;
47960;SDS011;33721;48.852;9.936;2023-09-19T05:46:15;2.80;;;1.25;;
47960;SDS011;33721;48.852;9.936;2023-09-19T05:48:41;2.75;;;1.10;;
47960;SDS011;33721;48.852;9.936;2023-09-19T05:51:06;3.22;;;1.15;;
47960;SDS011;33721;48.852;9.936;2023-09-19T05:53:32;2.60;;;1.38;;
47960;SDS011;33721;48.852;9.936;2023-09-19T05:55:58;4.70;;;1.27;;
47960;SDS011;33721;48.852;9.936;2023-09-19T05:58:26;2.63;;;1.30;;
47960;SDS011;33721;48.852;9.936;2023-09-19T06:00:51;3.63;;;1.50;;
47960;SDS011;33721;48.852;9.936;2023-09-19T06:03:17;6.32;;;1.50;;
47960;SDS011;33721;48.852;9.936;2023-09-19T06:05:44;5.55;;;1.30;;
47960;SDS011;33721;48.852;9.936;2023-09-19T06:08:11;3.92;;;1.30;;
47960;SDS011;33721;48.852;9.936;2023-09-19T06:10:37;4.63;;;1.60;;
47960;SDS011;33721;48.852;9.936;2023-09-19T06:13:03;6.50;;;2.08;;
47960;SDS011;33721;48.852;9.936;2023-09-19T06:15:34;4.80;;;1.38;;
47960;SDS011;33721;48.852;9.936;2023-09-19T06:18:00;5.40;;;1.33;;
47960;SDS011;33721;48.852;9.936;2023-09-19T06:20:27;3.50;;;1.17;;
47960;SDS011;33721;48.852;9.936;2023-09-19T06:22:53;8.25;;;1.60;;
47960;SDS011;33721;48.852;9.936;2023-09-19T06:25:20;2.85;;;1.40;;
47960;SDS011;33721;48.852;9.936;2023-09-19T06:27:47;2.22;;;1.17;;
47960;SDS011;33721;48.852;9.936;2023-09-19T06:30:20;4.22;;;1.42;;
47960;SDS011;33721;48.852;9.936;2023-09-19T06:32:46;2.70;;;1.40;;
47960;SDS011;33721;48.852;9.936;2023-09-19T06:35:14;3.63;;;1.23;;
47960;SDS011;33721;48.852;9.936;2023-09-19T06:37:41;3.22;;;1.50;;
47960;SDS011;33721;48.852;9.936;2023-09-19T06:40:13;5.88;;;1.75;;
47960;SDS011;33721;48.852;9.936;2023-09-19T06:42:43;3.58;;;1.40;;
47960;SDS011;33721;48.852;9.936;2023-09-19T06:45:12;9.13;;;1.77;;
47960;SDS011;33721;48.852;9.936;2023-09-19T06:47:42;4.95;;;1.88;;
47960;SDS011;33721;48.852;9.936;2023-09-19T06:50:10;4.55;;;1.50;;
47960;SDS011;33721;48.852;9.936;2023-09-19T06:52:39;3.50;;;1.45;;
47960;SDS011;33721;48.852;9.936;2023-09-19T06:55:06;6.53;;;2.20;;
47960;SDS011;33721;48.852;9.936;2023-09-19T06:57:32;2.72;;;1.40;;
47960;SDS011;33721;48.852;9.936;2023-09-19T06:59:57;2.25;;;1.10;;
47960;SDS011;33721;48.852;9.936;2023-09-19T07:02:23;4.07;;;1.05;;
47960;SDS011;33721;48.852;9.936;2023-09-19T07:04:49;2.85;;;1.50;;
47960;SDS011;33721;48.852;9.936;2023-09-19T07:07:15;3.92;;;1.33;;
47960;SDS011;33721;48.852;9.936;2023-09-19T07:09:41;2.70;;;1.30;;
47960;SDS011;33721;48.852;9.936;2023-09-19T07:12:07;5.75;;;1.60;;
47960;SDS011;33721;48.852;9.936;2023-09-19T07:14:33;6.53;;;1.95;;
47960;SDS011;33721;48.852;9.936;2023-09-19T07:16:59;5.45;;;1.90;;
47960;SDS011;33721;48.852;9.936;2023-09-19T07:19:28;5.68;;;1.90;;
47960;SDS011;33721;48.852;9.936;2023-09-19T07:21:55;5.63;;;1.60;;
47960;SDS011;33721;48.852;9.936;2023-09-19T07:24:20;5.43;;;1.55;;
47960;SDS011;33721;48.852;9.936;2023-09-19T07:26:49;4.07;;;1.80;;
47960;SDS011;33721;48.852;9.936;2023-09-19T07:29:15;9.77;;;1.65;;
47960;SDS011;33721;48.852;9.936;2023-09-19T07:31:40;5.78;;;1.92;;
47960;SDS011;33721;48.852;9.936;2023-09-19T07:34:06;4.43;;;2.10;;
47960;SDS011;33721;48.852;9.936;2023-09-19T07:36:34;4.55;;;1.98;;
47960;SDS011;33721;48.852;9.936;2023-09-19T07:39:02;4.07;;;1.92;;
47960;SDS011;33721;48.852;9.936;2023-09-19T07:41:32;5.40;;;2.17;;
47960;SDS011;33721;48.852;9.936;2023-09-19T07:43:58;6.03;;;2.55;;
47960;SDS011;33721;48.852;9.936;2023-09-19T07:46:23;4.97;;;2.28;;
47960;SDS011;33721;48.852;9.936;2023-09-19T07:48:50;7.75;;;2.42;;
47960;SDS011;33721;48.852;9.936;2023-09-19T07:51:16;4.25;;;2.20;;
47960;SDS011;33721;48.852;9.936;2023-09-19T07:53:42;5.78;;;2.33;;
47960;SDS011;33721;48.852;9.936;2023-09-19T07:56:09;5.63;;;2.72;;
47960;SDS011;33721;48.852;9.936;2023-09-19T07:58:35;6.40;;;2.85;;
47960;SDS011;33721;48.852;9.936;2023-09-19T08:01:06;5.78;;;2.97;;
47960;SDS011;33721;48.852;9.936;2023-09-19T08:03:33;4.75;;;2.97;;
47960;SDS011;33721;48.852;9.936;2023-09-19T08:05:59;9.30;;;2.88;;
47960;SDS011;33721;48.852;9.936;2023-09-19T08:08:26;6.32;;;2.83;;
47960;SDS011;33721;48.852;9.936;2023-09-19T08:11:01;10.65;;;3.15;;
47960;SDS011;33721;48.852;9.936;2023-09-19T08:13:26;9.88;;;3.25;;
47960;SDS011;33721;48.852;9.936;2023-09-19T08:15:52;6.13;;;2.75;;
47960;SDS011;33721;48.852;9.936;2023-09-19T08:18:18;4.88;;;2.80;;
47960;SDS011;33721;48.852;9.936;2023-09-19T08:20:49;7.20;;;2.50;;
47960;SDS011;33721;48.852;9.936;2023-09-19T08:23:15;9.00;;;3.00;;
47960;SDS011;33721;48.852;9.936;2023-09-19T08:25:43;6.28;;;3.10;;
47960;SDS011;33721;48.852;9.936;2023-09-19T08:28:09;8.80;;;2.70;;
47960;SDS011;33721;48.852;9.936;2023-09-19T08:30:37;7.93;;;3.00;;
47960;SDS011;33721;48.852;9.936;2023-09-19T08:33:05;7.97;;;2.80;;
47960;SDS011;33721;48.852;9.936;2023-09-19T08:35:32;7.38;;;2.47;;
47960;SDS011;33721;48.852;9.936;2023-09-19T08:37:58;6.95;;;2.83;;
47960;SDS011;33721;48.852;9.936;2023-09-19T08:40:29;7.70;;;2.72;;
47960;SDS011;33721;48.852;9.936;2023-09-19T08:42:58;8.00;;;3.05;;
47960;SDS011;33721;48.852;9.936;2023-09-19T08:45:26;4.97;;;2.42;;
47960;SDS011;33721;48.852;9.936;2023-09-19T08:50:30;5.30;;;2.75;;
47960;SDS011;33721;48.852;9.936;2023-09-19T08:52:58;7.53;;;2.50;;
47960;SDS011;33721;48.852;9.936;2023-09-19T08:55:35;5.65;;;2.40;;
47960;SDS011;33721;48.852;9.936;2023-09-19T08:58:03;7.35;;;2.25;;
47960;SDS011;33721;48.852;9.936;2023-09-19T09:00:31;9.50;;;2.83;;
47960;SDS011;33721;48.852;9.936;2023-09-19T09:02:59;4.75;;;2.63;;
47960;SDS011;33721;48.852;9.936;2023-09-19T09:05:27;5.43;;;2.30;;
47960;SDS011;33721;48.852;9.936;2023-09-19T09:07:53;7.13;;;2.38;;
47960;SDS011;33721;48.852;9.936;2023-09-19T09:10:21;6.43;;;2.78;;
47960;SDS011;33721;48.852;9.936;2023-09-19T09:12:53;5.68;;;2.53;;
47960;SDS011;33721;48.852;9.936;2023-09-19T09:15:23;10.50;;;2.20;;
47960;SDS011;33721;48.852;9.936;2023-09-19T09:17:49;6.63;;;2.33;;
47960;SDS011;33721;48.852;9.936;2023-09-19T09:20:17;6.10;;;2.38;;
47960;SDS011;33721;48.852;9.936;2023-09-19T09:22:50;5.53;;;1.90;;
47960;SDS011;33721;48.852;9.936;2023-09-19T09:25:17;5.75;;;2.17;;
47960;SDS011;33721;48.852;9.936;2023-09-19T09:27:43;4.65;;;2.22;;
47960;SDS011;33721;48.852;9.936;2023-09-19T09:30:10;3.65;;;2.00;;
47960;SDS011;33721;48.852;9.936;2023-09-19T09:33:09;4.55;;;2.03;;
47960;SDS011;33721;48.852;9.936;2023-09-19T09:35:55;5.55;;;2.28;;
47960;SDS011;33721;48.852;9.936;2023-09-19T09:38:25;5.53;;;2.40;;
47960;SDS011;33721;48.852;9.936;2023-09-19T09:40:57;4.50;;;2.45;;
47960;SDS011;33721;48.852;9.936;2023-09-19T09:43:33;4.15;;;1.83;;
47960;SDS011;33721;48.852;9.936;2023-09-19T09:46:11;4.43;;;2.22;;
47960;SDS011;33721;48.852;9.936;2023-09-19T09:48:46;3.50;;;2.10;;
47960;SDS011;33721;48.852;9.936;2023-09-19T09:51:34;6.57;;;2.38;;
47960;SDS011;33721;48.852;9.936;2023-09-19T09:54:12;5.93;;;1.90;;
47960;SDS011;33721;48.852;9.936;2023-09-19T09:56:55;3.53;;;1.95;;
47960;SDS011;33721;48.852;9.936;2023-09-19T10:02:19;6.80;;;2.25;;
47960;SDS011;33721;48.852;9.936;2023-09-19T10:04:58;5.57;;;2.20;;
47960;SDS011;33721;48.852;9.936;2023-09-19T10:07:32;4.28;;;1.85;;
47960;SDS011;33721;48.852;9.936;2023-09-19T10:10:04;2.55;;;1.70;;
47960;SDS011;33721;48.852;9.936;2023-09-19T10:12:57;4.78;;;2.25;;
47960;SDS011;33721;48.852;9.936;2023-09-19T10:15:27;3.80;;;1.80;;
47960;SDS011;33721;48.852;9.936;2023-09-19T10:17:57;5.35;;;2.00;;
47960;SDS011;33721;48.852;9.936;2023-09-19T10:20:26;3.50;;;2.10;;
47960;SDS011;33721;48.852;9.936;2023-09-19T10:23:06;3.65;;;1.90;;
47960;SDS011;33721;48.852;9.936;2023-09-19T10:25:38;3.90;;;1.67;;
47960;SDS011;33721;48.852;9.936;2023-09-19T10:28:06;2.42;;;1.60;;
47960;SDS011;33721;48.852;9.936;2023-09-19T10:30:36;4.57;;;1.67;;
47960;SDS011;33721;48.852;9.936;2023-09-19T10:33:04;4.47;;;2.00;;
47960;SDS011;33721;48.852;9.936;2023-09-19T10:35:32;2.90;;;1.30;;
47960;SDS011;33721;48.852;9.936;2023-09-19T10:38:03;6.40;;;1.75;;
47960;SDS011;33721;48.852;9.936;2023-09-19T10:40:32;3.35;;;1.98;;
47960;SDS011;33721;48.852;9.936;2023-09-19T10:43:03;2.83;;;1.48;;
47960;SDS011;33721;48.852;9.936;2023-09-19T10:45:30;8.07;;;1.52;;
47960;SDS011;33721;48.852;9.936;2023-09-19T10:47:58;6.18;;;1.77;;
47960;SDS011;33721;48.852;9.936;2023-09-19T10:50:29;4.10;;;1.63;;
47960;SDS011;33721;48.852;9.936;2023-09-19T10:53:11;5.65;;;1.60;;
47960;SDS011;33721;48.852;9.936;2023-09-19T10:55:38;4.20;;;1.73;;
47960;SDS011;33721;48.852;9.936;2023-09-19T10:58:05;5.20;;;1.70;;
47960;SDS011;33721;48.852;9.936;2023-09-19T11:00:52;4.70;;;1.75;;
47960;SDS011;33721;48.852;9.936;2023-09-19T11:03:20;3.28;;;1.80;;
47960;SDS011;33721;48.852;9.936;2023-09-19T11:11:41;3.38;;;1.63;;
47960;SDS011;33721;48.852;9.936;2023-09-19T11:30:32;6.40;;;1.58;;
47960;SDS011;33721;48.852;9.936;2023-09-19T11:43:51;6.50;;;1.23;;
47960;SDS011;33721;48.852;9.936;2023-09-19T11:46:23;2.15;;;1.20;;
47960;SDS011;33721;48.852;9.936;2023-09-19T11:48:50;2.55;;;1.30;;
47960;SDS011;33721;48.852;9.936;2023-09-19T11:51:20;3.30;;;1.50;;
47960;SDS011;33721;48.852;9.936;2023-09-19T11:53:52;2.15;;;1.20;;
47960;SDS011;33721;48.852;9.936;2023-09-19T11:56:19;4.30;;;1.40;;
47960;SDS011;33721;48.852;9.936;2023-09-19T11:58:51;2.25;;;1.27;;
47960;SDS011;33721;48.852;9.936;2023-09-19T12:01:23;3.53;;;1.27;;
47960;SDS011;33721;48.852;9.936;2023-09-19T12:03:57;4.15;;;1.52;;
47960;SDS011;33721;48.852;9.936;2023-09-19T12:06:27;2.72;;;1.15;;
47960;SDS011;33721;48.852;9.936;2023-09-19T12:09:01;6.85;;;1.58;;
47960;SDS011;33721;48.852;9.936;2023-09-19T12:11:31;3.58;;;1.15;;
47960;SDS011;33721;48.852;9.936;2023-09-19T12:13:58;4.00;;;1.20;;
47960;SDS011;33721;48.852;9.936;2023-09-19T12:16:26;2.17;;;1.10;;
47960;SDS011;33721;48.852;9.936;2023-09-19T12:18:55;2.30;;;1.02;;
47960;SDS011;33721;48.852;9.936;2023-09-19T12:23:59;2.78;;;1.05;;
47960;SDS011;33721;48.852;9.936;2023-09-19T12:26:45;4.38;;;1.00;;
47960;SDS011;33721;48.852;9.936;2023-09-19T12:29:18;3.85;;;0.95;;
47960;SDS011;33721;48.852;9.936;2023-09-19T12:34:25;2.08;;;1.10;;
47960;SDS011;33721;48.852;9.936;2023-09-19T12:39:41;1.65;;;1.10;;
47960;SDS011;33721;48.852;9.936;2023-09-19T12:42:09;6.72;;;1.23;;
47960;SDS011;33721;48.852;9.936;2023-09-19T12:44:36;2.20;;;1.30;;
47960;SDS011;33721;48.852;9.936;2023-09-19T12:47:15;4.28;;;1.50;;
47960;SDS011;33721;48.852;9.936;2023-09-19T12:52:46;3.90;;;1.23;;
47960;SDS011;33721;48.852;9.936;2023-09-19T12:55:27;1.60;;;0.98;;
47960;SDS011;33721;48.852;9.936;2023-09-19T13:00:41;3.88;;;1.30;;
47960;SDS011;33721;48.852;9.936;2023-09-19T13:03:42;4.97;;;1.20;;
47960;SDS011;33721;48.852;9.936;2023-09-19T13:06:02;2.47;;;1.00;;
47960;SDS011;33721;48.852;9.936;2023-09-19T13:08:34;7.80;;;1.33;;
47960;SDS011;33721;48.852;9.936;2023-09-19T13:13:32;4.40;;;1.10;;
47960;SDS011;33721;48.852;9.936;2023-09-19T13:15:58;1.95;;;1.20;;
47960;SDS011;33721;48.852;9.936;2023-09-19T13:18:26;4.30;;;1.00;;
47960;SDS011;33721;48.852;9.936;2023-09-19T13:21:10;1.75;;;1.00;;
47960;SDS011;33721;48.852;9.936;2023-09-19T13:23:55;2.65;;;1.10;;
47960;SDS011;33721;48.852;9.936;2023-09-19T13:26:41;6.43;;;1.08;;
47960;SDS011;33721;48.852;9.936;2023-09-19T13:29:06;1.90;;;1.10;;
47960;SDS011;33721;48.852;9.936;2023-09-19T13:31:32;3.50;;;1.13;;
47960;SDS011;33721;48.852;9.936;2023-09-19T13:33:58;3.28;;;1.40;;
47960;SDS011;33721;48.852;9.936;2023-09-19T13:36:24;1.70;;;1.05;;
47960;SDS011;33721;48.852;9.936;2023-09-19T13:38:49;3.90;;;1.13;;
47960;SDS011;33721;48.852;9.936;2023-09-19T13:41:15;4.97;;;1.27;;
47960;SDS011;33721;48.852;9.936;2023-09-19T13:43:41;5.40;;;1.27;;
47960;SDS011;33721;48.852;9.936;2023-09-19T13:46:07;3.38;;;1.27;;
47960;SDS011;33721;48.852;9.936;2023-09-19T13:48:33;2.17;;;1.00;;
47960;SDS011;33721;48.852;9.936;2023-09-19T13:51:01;3.78;;;1.02;;
47960;SDS011;33721;48.852;9.936;2023-09-19T13:53:28;6.13;;;1.23;;
47960;SDS011;33721;48.852;9.936;2023-09-19T13:55:54;2.83;;;1.33;;
47960;SDS011;33721;48.852;9.936;2023-09-19T13:58:19;2.35;;;1.10;;
47960;SDS011;33721;48.852;9.936;2023-09-19T14:00:46;4.00;;;1.08;;
47960;SDS011;33721;48.852;9.936;2023-09-19T14:03:12;2.97;;;1.35;;
47960;SDS011;33721;48.852;9.936;2023-09-19T14:05:37;2.08;;;1.20;;
47960;SDS011;33721;48.852;9.936;2023-09-19T14:08:03;3.40;;;1.30;;
47960;SDS011;33721;48.852;9.936;2023-09-19T14:10:29;2.63;;;1.10;;
47960;SDS011;33721;48.852;9.936;2023-09-19T14:12:56;2.88;;;1.20;;
47960;SDS011;33721;48.852;9.936;2023-09-19T14:15:24;5.07;;;1.23;;
47960;SDS011;33721;48.852;9.936;2023-09-19T14:17:54;2.55;;;1.10;;
47960;SDS011;33721;48.852;9.936;2023-09-19T14:20:24;4.78;;;1.38;;
47960;SDS011;33721;48.852;9.936;2023-09-19T14:22:51;4.47;;;1.30;;
47960;SDS011;33721;48.852;9.936;2023-09-19T14:25:18;2.88;;;1.38;;
47960;SDS011;33721;48.852;9.936;2023-09-19T14:27:43;2.83;;;0.90;;
47960;SDS011;33721;48.852;9.936;2023-09-19T14:30:09;2.22;;;1.02;;
47960;SDS011;33721;48.852;9.936;2023-09-19T14:32:35;3.78;;;1.20;;
47960;SDS011;33721;48.852;9.936;2023-09-19T14:35:02;2.78;;;1.50;;
47960;SDS011;33721;48.852;9.936;2023-09-19T14:37:27;7.57;;;1.58;;
47960;SDS011;33721;48.852;9.936;2023-09-19T14:39:53;3.35;;;1.83;;
47960;SDS011;33721;48.852;9.936;2023-09-19T14:42:19;2.58;;;1.05;;
47960;SDS011;33721;48.852;9.936;2023-09-19T14:44:45;2.60;;;1.30;;
47960;SDS011;33721;48.852;9.936;2023-09-19T14:47:12;2.72;;;1.20;;
47960;SDS011;33721;48.852;9.936;2023-09-19T14:49:38;3.83;;;1.20;;
47960;SDS011;33721;48.852;9.936;2023-09-19T14:52:09;6.40;;;1.13;;
47960;SDS011;33721;48.852;9.936;2023-09-19T14:54:35;5.25;;;1.17;;
47960;SDS011;33721;48.852;9.936;2023-09-19T14:57:03;3.72;;;1.58;;
47960;SDS011;33721;48.852;9.936;2023-09-19T14:59:32;2.60;;;1.30;;
47960;SDS011;33721;48.852;9.936;2023-09-19T15:01:59;2.42;;;1.20;;
47960;SDS011;33721;48.852;9.936;2023-09-19T15:04:25;4.28;;;1.30;;
47960;SDS011;33721;48.852;9.936;2023-09-19T15:06:52;1.67;;;0.95;;
47960;SDS011;33721;48.852;9.936;2023-09-19T15:09:20;1.98;;;1.33;;
47960;SDS011;33721;48.852;9.936;2023-09-19T15:11:53;4.20;;;1.10;;
47960;SDS011;33721;48.852;9.936;2023-09-19T15:14:23;3.42;;;1.15;;
47960;SDS011;33721;48.852;9.936;2023-09-19T15:16:50;6.57;;;1.20;;
47960;SDS011;33721;48.852;9.936;2023-09-19T15:19:15;6.88;;;1.30;;
47960;SDS011;33721;48.852;9.936;2023-09-19T15:21:42;2.75;;;1.10;;
47960;SDS011;33721;48.852;9.936;2023-09-19T15:24:09;4.43;;;1.48;;
47960;SDS011;33721;48.852;9.936;2023-09-19T15:26:35;5.53;;;1.55;;
47960;SDS011;33721;48.852;9.936;2023-09-19T15:29:07;5.53;;;1.23;;
47960;SDS011;33721;48.852;9.936;2023-09-19T15:31:33;3.53;;;1.75;;
47960;SDS011;33721;48.852;9.936;2023-09-19T15:34:01;3.10;;;1.27;;
47960;SDS011;33721;48.852;9.936;2023-09-19T15:36:27;2.13;;;1.20;;
47960;SDS011;33721;48.852;9.936;2023-09-19T15:41:36;3.38;;;1.33;;
47960;SDS011;33721;48.852;9.936;2023-09-19T15:44:03;3.40;;;1.25;;
47960;SDS011;33721;48.852;9.936;2023-09-19T15:46:30;3.63;;;1.15;;
47960;SDS011;33721;48.852;9.936;2023-09-19T15:48:58;2.65;;;1.40;;
47960;SDS011;33721;48.852;9.936;2023-09-19T15:51:25;4.25;;;1.48;;
47960;SDS011;33721;48.852;9.936;2023-09-19T15:53:52;2.83;;;1.20;;
47960;SDS011;33721;48.852;9.936;2023-09-19T15:56:19;3.63;;;1.48;;
47960;SDS011;33721;48.852;9.936;2023-09-19T15:58:52;4.35;;;1.58;;
47960;SDS011;33721;48.852;9.936;2023-09-19T16:01:20;3.50;;;1.38;;
47960;SDS011;33721;48.852;9.936;2023-09-19T16:03:51;2.45;;;1.35;;
47960;SDS011;33721;48.852;9.936;2023-09-19T16:06:20;2.40;;;1.23;;
47960;SDS011;33721;48.852;9.936;2023-09-19T16:08:49;4.68;;;1.25;;
47960;SDS011;33721;48.852;9.936;2023-09-19T16:11:16;3.35;;;1.55;;
47960;SDS011;33721;48.852;9.936;2023-09-19T16:13:43;3.75;;;1.30;;
47960;SDS011;33721;48.852;9.936;2023-09-19T16:16:13;3.10;;;1.08;;
47960;SDS011;33721;48.852;9.936;2023-09-19T16:18:45;1.83;;;1.05;;
47960;SDS011;33721;48.852;9.936;2023-09-19T16:21:13;3.33;;;1.08;;
47960;SDS011;33721;48.852;9.936;2023-09-19T16:23:39;6.65;;;1.25;;